Messwerte Point Hope

Temperatur

Temperatur
°C
1573704000 19.00 19.00 -10
1573707600 20.00 20.00 -10
1573711200 21.00 21.00 -11
1573714800 22.00 22.00 -12
1573718400 23.00 23.00 -12
1573722000 0.00 0.00 -11
1573725600 1.00 1.00 -11
1573729200 2.00 2.00 -11
1573732800 3.00 3.00 -11
1573736400 4.00 4.00 -11
1573740000 5.00 5.00 -11
1573743600 6.00 6.00 -10
1573747200 7.00 7.00
1573750800 8.00 8.00 -11
1573754400 9.00 9.00 -11
1573758000 10.00 10.00 -11
1573761600 11.00 11.00
1573765200 12.00 12.00 -11
1573768800 13.00 13.00 -12
1573772400 14.00 14.00 -11
1573776000 15.00 15.00 -11
1573779600 16.00 16.00 -10
1573783200 17.00 17.00 -10
1573786800 18.00 18.00 -11

Aktuellste Messwerte

Wettercharakter
Wetter: klar
Temperatur
-11 °C
Feuchtigkeit
80 %
Wind
70 km/hWindrichtung: Nordost
Böen
85 km/h
Luftdruck
1016 hPa
Messzeit: 14. November 2019, 19.00Datenquelle: METAR

Weitere Messstationen in der Nähe

Messstation Temperatur Entfernung
Cape Lisburne -10 °C 65 km
Kivalina -11 °C 116 km
Noatak -9 °C 181 km
Kotzebue -10 °C 240 km
Tin City -10 °C 313 km
Selawik -12 °C 347 km
Buckland -11 °C 359 km

Wind

Windrichtung Böen Mittelwind
° km/h km/h
1573704000 19.00 18.00 - 19.00 60° 70 50
1573707600 20.00 19.00 - 20.00 60° 85 65
1573711200 21.00 20.00 - 21.00 60° 80 70
1573714800 22.00 21.00 - 22.00 60° 90 75
1573718400 23.00 22.00 - 23.00 60° 95 75
1573722000 0.00 23.00 - 0.00 60° 90 80
1573725600 1.00 0.00 - 1.00 60° 80 65
1573729200 2.00 1.00 - 2.00 60° 70 60
1573732800 3.00 2.00 - 3.00 60° 80 65
1573736400 4.00 3.00 - 4.00 60° 75 65
1573740000 5.00 4.00 - 5.00 60° 75 65
1573743600 6.00 5.00 - 6.00 60° 85 70
1573747200 7.00 6.00 - 7.00
1573750800 8.00 7.00 - 8.00 60° 70 60
1573754400 9.00 8.00 - 9.00 50° 75 60
1573758000 10.00 9.00 - 10.00 60° 95 85
1573761600 11.00 10.00 - 11.00
1573765200 12.00 11.00 - 12.00 60° 95 75
1573768800 13.00 12.00 - 13.00 60° 80 60
1573772400 14.00 13.00 - 14.00 60° 85 70
1573776000 15.00 14.00 - 15.00 60° 85 65
1573779600 16.00 15.00 - 16.00 50° 85 70
1573783200 17.00 16.00 - 17.00 50° 85 65
1573786800 18.00 17.00 - 18.00 50° 95 80

Ihre Wetterstation

Fehlt Ihre Wetterstation auf unserem Portal?

Schreiben Sie an network@meteonews.ch